aviador You're here:

CYFS Decoded Metar

FORT SIMPSON in NT, CANADA
Report Time2017-11-21 06:00:00
UTC Time2017-11-21 06:14:14
Flight Rules vfr VFR
Wind290° at 06 kt
W.Decomp.*RWY 32: 3.8 kt HW 4.7 kt LCW
W.Rank290° ranks 16
Current wind is above 290° avg. (5.3)
Visibility9999 m
Phenomena:N/A
Clouds:Broken 150 Hf
Overcast 200 Hf
Expected CloudBase > 1,200 ft AGL from Temp-Dew spread
Ceiling15,000 ft
Temp-23°C (ISA -37)
Dew Point-26°C (77% RH)
AAT-28.9°C
QNH1029 hPa
Density Alt-4,741 ft
Elevation554 ft
Report Wrong Elevation
Raw Report
CYFS 210600Z 29006KT 15SM BKN150 OVC200 M23/M26 A3038 RMK AC6CI2
SLP315=

Extra information for CYFS:More info

Metar Taf Metar & Taf Last 4 Metars F.Rules Stats Wind Profile Meteogram Temp Stats Airport Information Weather charts Add Link Nearby VenuesMetar ALERT Operation Metar Decoded Social comments